Time;durP1;ratioP1;P1;durP2;ratioP2;P2;SDS_P1;SDS_P2;PMS_P1;PMS_P2;Temp;Humidity;BMP_temperature;BMP_pressure;BME280_temperature;BME280_humidity;BME280_pressure;Samples;Min_cycle;Max_cycle;Signal;HPM_P1;HPM_P2
2022/03/31 00:00:31;;;;;;;25.83;18.60;;;9.50;99.90;;;;;;5075754;28;20571;-88
2022/03/31 00:02:58;;;;;;;20.35;17.58;;;9.20;99.90;;;;;;5075763;28;20433;-88
2022/03/31 00:05:24;;;;;;;22.98;18.13;;;9.10;99.90;;;;;;5076571;28;20376;-88
2022/03/31 00:07:56;;;;;;;24.35;17.58;;;9.10;99.90;;;;;;5061115;28;20453;-88
2022/03/31 00:10:25;;;;;;;21.10;18.35;;;9.20;99.90;;;;;;5078984;28;20454;-88
2022/03/31 00:12:52;;;;;;;32.75;19.85;;;9.20;99.90;;;;;;5078533;28;20375;-88
2022/03/31 00:15:18;;;;;;;23.38;17.67;;;9.20;99.90;;;;;;5078453;28;20471;-88
2022/03/31 00:17:44;;;;;;;24.05;16.90;;;9.20;99.90;;;;;;5077826;28;20379;-88
2022/03/31 00:20:11;;;;;;;22.98;16.92;;;9.30;99.90;;;;;;5078621;28;20494;-88
2022/03/31 00:22:38;;;;;;;21.35;16.42;;;9.50;99.90;;;;;;5059565;28;20384;-88
2022/03/31 00:25:05;;;;;;;16.92;15.02;;;9.50;99.90;;;;;;5060128;28;20375;-88
2022/03/31 00:27:31;;;;;;;16.42;13.57;;;9.50;99.90;;;;;;5077928;28;20380;-88
2022/03/31 00:29:57;;;;;;;14.97;13.27;;;9.70;99.90;;;;;;5060096;28;20390;-87
2022/03/31 00:32:22;;;;;;;20.10;15.60;;;9.90;99.90;;;;;;5059271;28;20402;-87
2022/03/31 00:34:48;;;;;;;18.43;15.07;;;9.70;99.90;;;;;;5077279;28;20388;-87
2022/03/31 00:37:14;;;;;;;20.77;15.35;;;9.60;99.90;;;;;;5058996;28;20386;-88
2022/03/31 00:39:39;;;;;;;17.77;14.83;;;9.70;99.90;;;;;;5076791;28;20465;-87
2022/03/31 00:42:06;;;;;;;18.23;14.73;;;10.50;99.90;;;;;;5088875;28;20392;-88
2022/03/31 00:44:34;;;;;;;21.30;15.43;;;10.00;99.90;;;;;;5076648;28;20846;-87
2022/03/31 00:47:00;;;;;;;19.80;15.48;;;9.80;99.90;;;;;;5076402;28;20495;-88
2022/03/31 00:49:29;;;;;;;20.63;16.15;;;10.00;99.90;;;;;;5076891;28;20408;-88
2022/03/31 00:51:55;;;;;;;22.75;16.63;;;9.70;99.90;;;;;;5076730;28;20380;-88
2022/03/31 00:54:25;;;;;;;19.85;16.55;;;9.60;99.90;;;;;;5076658;28;20372;-88
2022/03/31 00:56:51;;;;;;;18.40;16.40;;;10.00;99.90;;;;;;5077074;28;20384;-87
2022/03/31 00:59:18;;;;;;;18.80;15.60;;;9.70;99.90;;;;;;5077695;28;20372;-88
2022/03/31 01:01:45;;;;;;;18.70;16.70;;;9.80;99.90;;;;;;5057978;28;20762;-88
2022/03/31 01:04:12;;;;;;;19.85;16.63;;;10.10;99.90;;;;;;5076254;28;20384;-88
2022/03/31 01:06:38;;;;;;;17.73;15.82;;;9.80;99.90;;;;;;5076508;28;20376;-87
2022/03/31 01:09:05;;;;;;;17.83;16.03;;;9.80;99.90;;;;;;5058981;28;20874;-88
2022/03/31 01:11:32;;;;;;;24.60;19.02;;;10.60;99.90;;;;;;5076477;28;20388;-87
2022/03/31 01:13:58;;;;;;;22.45;17.40;;;9.90;99.90;;;;;;5076109;28;20874;-88
2022/03/31 01:16:24;;;;;;;19.13;16.73;;;9.90;99.90;;;;;;5051922;28;20409;-87
2022/03/31 01:18:53;;;;;;;25.15;18.13;;;10.20;99.90;;;;;;5075224;28;20380;-88
2022/03/31 01:21:22;;;;;;;23.40;19.48;;;10.00;99.90;;;;;;5061127;28;20910;-87
2022/03/31 01:23:47;;;;;;;26.92;21.83;;;9.50;99.90;;;;;;5058728;28;20414;-87
2022/03/31 01:26:13;;;;;;;22.90;19.00;;;9.10;99.90;;;;;;5075629;28;20388;-87
2022/03/31 01:28:42;;;;;;;23.90;17.93;;;9.50;99.90;;;;;;5057335;28;20390;-87
2022/03/31 01:31:08;;;;;;;21.52;16.70;;;9.40;99.90;;;;;;5057390;28;20778;-87
2022/03/31 01:33:36;;;;;;;20.38;15.85;;;9.70;99.90;;;;;;5075327;28;20376;-87
2022/03/31 01:36:04;;;;;;;19.87;16.23;;;9.90;99.90;;;;;;5057420;28;20460;-88
2022/03/31 01:38:30;;;;;;;20.15;15.70;;;10.00;99.90;;;;;;5056987;28;20391;-88
2022/03/31 01:40:56;;;;;;;19.45;15.15;;;10.20;99.90;;;;;;5059511;28;20831;-88
2022/03/31 01:43:26;;;;;;;18.67;15.27;;;10.20;99.90;;;;;;5075011;28;20488;-88
2022/03/31 01:45:53;;;;;;;16.13;14.50;;;10.40;99.90;;;;;;5056819;28;20943;-87
2022/03/31 01:48:21;;;;;;;15.85;14.25;;;10.50;99.90;;;;;;5056845;28;20387;-87
2022/03/31 01:50:47;;;;;;;16.17;14.50;;;10.40;99.90;;;;;;5067331;28;20393;-88
2022/03/31 01:53:14;;;;;;;19.40;15.07;;;10.40;99.90;;;;;;5063224;28;20383;-87
2022/03/31 01:55:40;;;;;;;20.40;15.65;;;11.00;99.90;;;;;;5056574;28;20398;-87
2022/03/31 01:58:06;;;;;;;21.08;15.98;;;10.40;99.90;;;;;;5070197;28;20485;-88
2022/03/31 02:00:32;;;;;;;21.92;16.85;;;10.10;99.90;;;;;;5055888;28;20431;-87
2022/03/31 02:02:59;;;;;;;17.15;15.30;;;9.90;99.90;;;;;;5072846;28;20904;-88
2022/03/31 02:05:25;;;;;;;17.52;15.20;;;10.10;99.90;;;;;;5055624;28;20380;-88
2022/03/31 02:07:54;;;;;;;16.95;14.95;;;10.20;99.90;;;;;;5055548;28;20431;-88
2022/03/31 02:10:20;;;;;;;17.50;14.55;;;10.30;99.90;;;;;;5073075;28;20384;-87
2022/03/31 02:12:49;;;;;;;21.17;15.20;;;10.30;99.90;;;;;;5073111;28;20437;-87
2022/03/31 02:15:15;;;;;;;17.73;14.73;;;10.20;99.90;;;;;;5072876;28;20396;-88
2022/03/31 02:17:41;;;;;;;17.20;15.10;;;10.50;99.90;;;;;;5074049;28;20441;-87
2022/03/31 02:20:08;;;;;;;20.85;15.75;;;10.40;99.90;;;;;;5055788;28;20408;-87
2022/03/31 02:22:34;;;;;;;20.10;14.70;;;10.20;99.90;;;;;;5074168;28;20376;-87
2022/03/31 02:25:00;;;;;;;21.10;14.50;;;10.20;99.90;;;;;;5053511;28;20736;-87
2022/03/31 02:27:25;;;;;;;22.80;15.63;;;10.30;99.90;;;;;;5054273;28;20485;-87
2022/03/31 02:29:51;;;;;;;22.73;15.73;;;10.30;99.90;;;;;;5055294;28;20407;-87
2022/03/31 02:32:17;;;;;;;21.17;14.70;;;10.30;99.90;;;;;;5053878;28;20395;-87
2022/03/31 02:34:42;;;;;;;17.23;14.80;;;10.90;99.90;;;;;;5072175;28;20388;-87
2022/03/31 02:37:08;;;;;;;21.97;15.13;;;10.50;99.90;;;;;;5056251;28;20422;-87
2022/03/31 02:39:34;;;;;;;18.23;14.80;;;10.60;99.90;;;;;;5073716;28;20388;-87
2022/03/31 02:42:03;;;;;;;17.20;14.50;;;10.60;99.90;;;;;;5073566;28;20934;-88
2022/03/31 02:44:29;;;;;;;19.83;14.38;;;10.30;99.90;;;;;;5075992;28;20781;-88
2022/03/31 02:49:47;;;;;;;16.08;14.40;;;10.30;99.90;;;;;;5073692;28;20379;-87
2022/03/31 02:55:24;;;;;;;17.75;14.70;;;10.30;99.90;;;;;;5073813;28;20383;-87
2022/03/31 02:55:24;;;;;;;17.63;15.43;;;10.20;99.90;;;;;;5072503;28;20414;-88
2022/03/31 02:58:13;;;;;;;18.63;16.15;;;10.00;99.90;;;;;;5074354;28;20380;-87
2022/03/31 03:04:08;;;;;;;16.80;15.00;;;9.90;99.90;;;;;;5052172;28;20437;-88
2022/03/31 03:10:02;;;;;;;16.87;14.70;;;10.00;99.90;;;;;;5037089;28;20376;-88
2022/03/31 03:12:45;;;;;;;17.85;15.40;;;10.10;99.90;;;;;;5057896;28;20391;-87
2022/03/31 03:16:15;;;;;;;;;;;;;;;;;;;;;
2022/03/31 03:19:26;;;;;;;15.70;13.90;;;10.50;99.90;;;;;;4992240;28;20409;-88
2022/03/31 03:22:03;;;;;;;14.90;13.50;;;9.90;99.90;;;;;;4991718;28;20496;-87
2022/03/31 03:24:39;;;;;;;17.02;15.18;;;11.10;99.90;;;;;;5068871;28;20502;-87
2022/03/31 03:27:13;;;;;;;15.20;13.65;;;9.80;99.90;;;;;;5076556;28;20376;-87
2022/03/31 03:30:02;;;;;;;15.65;13.68;;;9.90;99.90;;;;;;5073945;28;20385;-87
2022/03/31 03:32:37;;;;;;;;;;;;;;;;;;;;;
2022/03/31 03:38:17;;;;;;;14.52;13.13;;;10.00;99.90;;;;;;5038986;28;20382;-87
2022/03/31 03:41:03;;;;;;;14.52;13.13;;;9.40;99.90;;;;;;5068598;28;20402;-87
2022/03/31 03:43:32;;;;;;;14.80;13.30;;;10.20;99.90;;;;;;5059982;28;20391;-87
2022/03/31 03:46:00;;;;;;;16.38;14.30;;;10.10;99.90;;;;;;5071638;28;20724;-88
2022/03/31 03:48:29;;;;;;;17.55;14.25;;;10.20;99.90;;;;;;5058315;28;20820;-88
2022/03/31 03:51:19;;;;;;;14.50;13.00;;;10.30;99.90;;;;;;5074411;28;20445;-87
2022/03/31 03:53:44;;;;;;;14.40;12.93;;;10.40;99.90;;;;;;5059434;28;20499;-87
2022/03/31 03:56:10;;;;;;;15.70;14.10;;;10.20;99.90;;;;;;5077329;28;20451;-87
2022/03/31 04:00:04;;;;;;;15.43;13.73;;;10.10;99.90;;;;;;5077272;28;20407;-87
2022/03/31 04:02:16;;;;;;;18.65;14.10;;;10.10;99.90;;;;;;5002132;28;20405;-87
2022/03/31 04:04:50;;;;;;;15.40;13.38;;;9.90;99.90;;;;;;5078292;28;20384;-87
2022/03/31 04:07:16;;;;;;;18.77;13.85;;;9.80;99.90;;;;;;5058901;28;20445;-87
2022/03/31 04:09:50;;;;;;;13.65;12.30;;;10.40;99.90;;;;;;5076734;28;20391;-87
2022/03/31 04:12:18;;;;;;;13.73;11.93;;;10.80;99.90;;;;;;5077330;28;20739;-87
2022/03/31 04:14:46;;;;;;;13.57;12.07;;;9.00;99.90;;;;;;5058807;28;20426;-87
2022/03/31 04:17:15;;;;;;;14.83;13.00;;;9.60;99.90;;;;;;5076808;28;20391;-87
2022/03/31 04:19:53;;;;;;;14.25;12.95;;;9.50;99.90;;;;;;5076740;28;20394;-88
2022/03/31 04:22:27;;;;;;;14.50;13.00;;;9.70;99.90;;;;;;5059136;28;20796;-87
2022/03/31 04:24:53;;;;;;;15.48;13.98;;;9.80;99.90;;;;;;5076455;28;20386;-87
2022/03/31 04:27:25;;;;;;;14.45;12.85;;;10.10;99.90;;;;;;5077306;28;20521;-87
2022/03/31 04:29:53;;;;;;;14.52;13.02;;;9.60;99.90;;;;;;5077483;28;20382;-87
2022/03/31 04:32:27;;;;;;;15.00;13.25;;;9.90;99.90;;;;;;5077561;28;20470;-87
2022/03/31 04:34:55;;;;;;;14.50;13.00;;;10.50;99.90;;;;;;5077176;28;20969;-87
2022/03/31 04:37:28;;;;;;;15.95;14.30;;;9.50;99.90;;;;;;5061850;28;20392;-87
2022/03/31 04:39:54;;;;;;;15.15;13.35;;;9.80;99.90;;;;;;5092455;28;20481;-87
2022/03/31 04:42:23;;;;;;;13.97;12.50;;;9.80;99.90;;;;;;5078712;28;20408;-87
2022/03/31 04:44:55;;;;;;;14.03;12.63;;;9.80;99.90;;;;;;5076997;28;20767;-87
2022/03/31 04:47:21;;;;;;;13.45;12.25;;;9.50;99.90;;;;;;5078101;28;20460;-87
2022/03/31 04:49:54;;;;;;;13.40;12.20;;;9.50;99.90;;;;;;5076607;28;20479;-87
2022/03/31 04:52:23;;;;;;;13.25;11.85;;;10.40;99.90;;;;;;5058952;28;20560;-87
2022/03/31 04:54:48;;;;;;;13.23;11.90;;;9.40;99.90;;;;;;5058983;28;20817;-87
2022/03/31 04:57:19;;;;;;;12.88;11.18;;;9.80;99.90;;;;;;5077333;28;20379;-87
2022/03/31 04:59:45;;;;;;;11.93;10.05;;;9.40;99.90;;;;;;5076880;28;20785;-88
2022/03/31 05:02:12;;;;;;;13.38;12.02;;;9.60;99.90;;;;;;5059064;28;20387;-87
2022/03/31 05:04:38;;;;;;;14.18;12.93;;;8.80;99.90;;;;;;5057727;28;20450;-87
2022/03/31 05:07:08;;;;;;;13.33;12.03;;;9.60;99.90;;;;;;5058682;28;20382;-87
2022/03/31 05:09:36;;;;;;;13.55;12.15;;;9.50;99.90;;;;;;5054790;28;20391;-87
2022/03/31 05:12:03;;;;;;;12.63;11.45;;;9.60;99.90;;;;;;5065421;28;20400;-87
2022/03/31 05:14:34;;;;;;;13.57;12.32;;;9.60;99.90;;;;;;5049951;28;20911;-87
2022/03/31 05:17:10;;;;;;;13.45;12.05;;;9.60;99.90;;;;;;5061383;28;20399;-87
2022/03/31 05:19:42;;;;;;;12.82;11.73;;;9.60;99.90;;;;;;5069683;28;20479;-87
2022/03/31 05:23:10;;;;;;;12.50;11.27;;;9.50;99.90;;;;;;5062919;28;20399;-87
2022/03/31 05:26:16;;;;;;;11.88;10.77;;;9.50;99.90;;;;;;5048819;28;20437;-86
2022/03/31 05:29:11;;;;;;;11.70;10.48;;;9.10;99.90;;;;;;5069297;28;20792;-87
2022/03/31 05:39:23;;;;;;;11.30;10.20;;;9.90;99.90;;;;;;5051554;28;20421;-87
2022/03/31 05:44:30;;;;;;;11.40;10.30;;;9.90;99.90;;;;;;4762012;26;20432;-85
2022/03/31 05:46:56;;;;;;;10.52;9.52;;;9.90;99.90;;;;;;5073545;28;20392;-86
2022/03/31 05:49:27;;;;;;;15.43;11.13;;;9.30;99.90;;;;;;5051739;28;20591;-86
2022/03/31 05:52:02;;;;;;;13.57;11.45;;;9.70;99.90;;;;;;5150430;22;20438;-85
2022/03/31 05:55:05;;;;;;;11.90;10.70;;;10.00;99.90;;;;;;5131445;27;20829;-85
2022/03/31 05:57:31;;;;;;;13.05;11.73;;;9.20;99.90;;;;;;5117035;27;20877;-86
2022/03/31 06:00:00;;;;;;;11.38;10.10;;;9.20;99.90;;;;;;5116907;27;20466;-87
2022/03/31 06:02:27;;;;;;;12.95;10.90;;;9.50;99.90;;;;;;5116525;28;20413;-84
2022/03/31 06:04:52;;;;;;;11.68;10.57;;;9.30;99.90;;;;;;5103078;27;20390;-85
2022/03/31 06:07:19;;;;;;;11.43;10.30;;;9.30;99.90;;;;;;5107800;28;20912;-87
2022/03/31 06:09:45;;;;;;;12.02;10.90;;;9.00;99.90;;;;;;5099359;27;20449;-87
2022/03/31 06:12:13;;;;;;;10.88;9.88;;;9.50;99.90;;;;;;5105132;28;20382;-87
2022/03/31 06:14:42;;;;;;;10.77;9.68;;;9.60;99.90;;;;;;5097017;27;20870;-87
2022/03/31 06:17:08;;;;;;;11.20;9.65;;;9.80;99.90;;;;;;5116989;27;20405;-87
2022/03/31 06:19:45;;;;;;;10.60;9.53;;;9.90;99.90;;;;;;5122254;27;21058;-85
2022/03/31 06:22:13;;;;;;;12.13;10.60;;;9.40;99.90;;;;;;5091134;27;20802;-85
2022/03/31 06:24:39;;;;;;;10.80;9.80;;;9.20;99.90;;;;;;5135329;27;20398;-85
2022/03/31 06:27:08;;;;;;;11.63;10.43;;;9.30;99.90;;;;;;5116355;27;20379;-85
2022/03/31 06:30:22;;;;;;;12.00;10.18;;;9.20;99.90;;;;;;5116306;27;20391;-85
2022/03/31 06:33:04;;;;;;;;;;;;;;;;;;;;;
2022/03/31 06:36:30;;;;;;;;;;;;;;;;;;;;;
2022/03/31 06:50:36;;;;;;;10.52;9.55;;;9.50;99.90;;;;;;5064646;28;20924;-87
2022/03/31 06:53:05;;;;;;;10.98;9.75;;;9.40;99.90;;;;;;5059327;28;20378;-87
2022/03/31 06:55:31;;;;;;;10.97;9.97;;;9.80;99.90;;;;;;5058187;28;20384;-87
2022/03/31 06:57:59;;;;;;;12.67;10.60;;;9.70;99.90;;;;;;5059231;28;20491;-87
2022/03/31 07:00:49;;;;;;;12.25;11.00;;;9.70;99.90;;;;;;5039122;28;20398;-87
2022/03/31 07:03:17;;;;;;;13.02;11.63;;;9.80;99.90;;;;;;5062850;28;20483;-87
2022/03/31 07:05:46;;;;;;;12.07;11.02;;;9.70;99.90;;;;;;5062965;28;20470;-87
2022/03/31 07:09:41;;;;;;;13.50;11.90;;;10.80;99.90;;;;;;5045371;28;20398;-87
2022/03/31 07:11:38;;;;;;;13.73;12.40;;;9.70;99.90;;;;;;5024455;28;20390;-87
2022/03/31 07:14:05;;;;;;;15.00;12.45;;;9.60;99.90;;;;;;5056143;28;20412;-87
2022/03/31 07:16:39;;;;;;;13.68;12.43;;;9.60;99.90;;;;;;5055927;28;20389;-87
2022/03/31 07:19:14;;;;;;;12.77;11.57;;;9.50;99.90;;;;;;5056093;28;20393;-88
2022/03/31 07:21:39;;;;;;;12.73;11.43;;;9.30;99.90;;;;;;5057841;28;20484;-88
2022/03/31 07:24:06;;;;;;;13.53;12.13;;;9.30;99.90;;;;;;5055709;28;20440;-87
2022/03/31 07:26:32;;;;;;;13.07;11.80;;;9.40;99.90;;;;;;5015810;28;20397;-87
2022/03/31 07:28:58;;;;;;;14.10;12.63;;;9.40;99.90;;;;;;5055774;28;20871;-87
2022/03/31 07:31:28;;;;;;;14.07;12.68;;;9.30;99.90;;;;;;5050286;28;20386;-87
2022/03/31 07:33:54;;;;;;;13.50;12.20;;;9.20;99.90;;;;;;5055719;28;20392;-87
2022/03/31 07:36:19;;;;;;;13.17;11.87;;;9.20;99.90;;;;;;5053791;28;20473;-87
2022/03/31 07:38:45;;;;;;;12.82;11.55;;;9.60;99.90;;;;;;5067487;28;20417;-87
2022/03/31 07:41:12;;;;;;;13.57;12.18;;;9.20;99.90;;;;;;5055121;28;20401;-87
2022/03/31 07:43:38;;;;;;;11.63;10.63;;;9.50;99.90;;;;;;5049580;28;20378;-87
2022/03/31 07:46:04;;;;;;;13.68;11.73;;;9.60;99.90;;;;;;5055450;28;20397;-87
2022/03/31 07:48:39;;;;;;;12.90;11.77;;;9.70;99.90;;;;;;5059562;28;20445;-87
2022/03/31 07:51:08;;;;;;;12.77;11.45;;;9.70;99.90;;;;;;5063537;28;20395;-87
2022/03/31 07:53:34;;;;;;;11.68;10.57;;;9.80;99.90;;;;;;5071368;28;20392;-87
2022/03/31 07:56:02;;;;;;;12.63;11.52;;;9.90;99.90;;;;;;5058379;28;20386;-87
2022/03/31 07:58:29;;;;;;;12.43;11.30;;;9.80;99.90;;;;;;5054487;28;20389;-87
2022/03/31 08:00:55;;;;;;;12.73;11.43;;;9.90;99.90;;;;;;5056738;28;20392;-87
2022/03/31 08:03:24;;;;;;;12.50;11.43;;;10.20;99.90;;;;;;5044318;28;20919;-88
2022/03/31 08:05:50;;;;;;;12.32;11.23;;;10.30;99.90;;;;;;5046613;28;20392;-88
2022/03/31 08:08:16;;;;;;;13.27;11.98;;;10.10;99.90;;;;;;5055376;28;20392;-87
2022/03/31 08:10:41;;;;;;;13.53;12.17;;;10.10;99.90;;;;;;5061381;28;20389;-87
2022/03/31 08:13:08;;;;;;;13.27;11.97;;;10.00;99.90;;;;;;5057952;28;20392;-88
2022/03/31 08:15:34;;;;;;;13.20;11.93;;;10.20;99.90;;;;;;5067233;28;20414;-87
2022/03/31 08:18:00;;;;;;;13.45;12.25;;;10.50;99.90;;;;;;5058387;28;20872;-87
2022/03/31 08:20:27;;;;;;;13.20;11.95;;;10.50;99.90;;;;;;5056554;28;20464;-88
2022/03/31 08:22:52;;;;;;;12.80;11.60;;;10.70;99.90;;;;;;5056804;28;20393;-87
2022/03/31 08:25:18;;;;;;;14.00;12.60;;;10.70;99.90;;;;;;5058235;28;20384;-87
2022/03/31 08:27:45;;;;;;;12.70;11.68;;;10.60;99.90;;;;;;5059406;28;20385;-88
2022/03/31 08:30:18;;;;;;;13.95;12.52;;;10.70;99.90;;;;;;5056877;28;20480;-88
2022/03/31 08:32:46;;;;;;;12.05;10.88;;;10.80;99.90;;;;;;5060747;28;20935;-88
2022/03/31 08:35:13;;;;;;;12.23;10.70;;;10.60;99.90;;;;;;5059231;28;20393;-89
2022/03/31 08:37:39;;;;;;;12.32;11.13;;;10.60;99.90;;;;;;5058755;28;20393;-88
2022/03/31 08:40:14;;;;;;;11.37;10.37;;;10.60;99.90;;;;;;5058149;28;20932;-87
2022/03/31 08:42:41;;;;;;;11.60;10.57;;;11.00;99.90;;;;;;5057598;28;20384;-87
2022/03/31 08:45:14;;;;;;;12.90;11.13;;;11.70;99.90;;;;;;5057350;28;20411;-87
2022/03/31 08:47:41;;;;;;;12.10;10.90;;;10.50;99.90;;;;;;5059222;28;20386;-88
2022/03/31 08:50:08;;;;;;;14.25;11.95;;;11.20;99.90;;;;;;5038969;28;20393;-87
2022/03/31 08:52:34;;;;;;;15.15;9.40;;;9.90;99.90;;;;;;5039481;28;20389;-88
2022/03/31 08:54:59;;;;;;;11.50;10.20;;;10.50;99.90;;;;;;5038960;28;20391;-87
2022/03/31 08:57:37;;;;;;;11.97;9.63;;;10.90;99.90;;;;;;5038238;28;20389;-86
2022/03/31 09:00:03;;;;;;;12.18;9.00;;;10.60;99.90;;;;;;5056131;28;20912;-86
2022/03/31 09:02:28;;;;;;;13.73;9.00;;;10.50;99.90;;;;;;5056661;28;20404;-87
2022/03/31 09:05:04;;;;;;;15.65;9.48;;;10.60;99.90;;;;;;5040309;28;20385;-87
2022/03/31 09:07:30;;;;;;;14.40;10.68;;;10.60;99.90;;;;;;5055355;28;20416;-87
2022/03/31 09:09:56;;;;;;;16.13;11.50;;;10.70;99.90;;;;;;5057105;28;20389;-87
2022/03/31 09:12:26;;;;;;;14.73;11.63;;;10.80;99.90;;;;;;5037671;28;20390;-87
2022/03/31 09:14:53;;;;;;;15.60;11.98;;;11.00;99.90;;;;;;5037495;28;20389;-89
2022/03/31 09:17:19;;;;;;;18.63;14.88;;;10.80;99.90;;;;;;5037899;28;20895;-87
2022/03/31 09:19:45;;;;;;;18.67;15.30;;;10.80;99.90;;;;;;5039320;28;20394;-87
2022/03/31 09:22:11;;;;;;;22.90;16.17;;;10.90;99.90;;;;;;5055525;28;20404;-88
2022/03/31 09:24:37;;;;;;;22.13;17.00;;;10.90;99.90;;;;;;5036877;28;20389;-88
2022/03/31 09:27:09;;;;;;;21.40;17.33;;;11.00;99.90;;;;;;5056275;28;20386;-89
2022/03/31 09:29:35;;;;;;;21.08;15.50;;;11.10;99.90;;;;;;5055405;28;20378;-88
2022/03/31 09:32:11;;;;;;;22.60;15.52;;;11.10;99.90;;;;;;5020680;28;20386;-88
2022/03/31 09:34:49;;;;;;;24.40;16.80;;;11.20;99.90;;;;;;5049404;28;20388;-88
2022/03/31 09:37:15;;;;;;;21.05;15.70;;;11.50;99.90;;;;;;5054000;28;20428;-87
2022/03/31 09:39:41;;;;;;;18.17;14.25;;;11.60;99.90;;;;;;5037168;28;20413;-88
2022/03/31 09:42:12;;;;;;;18.80;14.45;;;11.70;99.90;;;;;;5036030;28;20954;-88
2022/03/31 09:44:38;;;;;;;17.75;13.63;;;11.80;99.90;;;;;;5054817;28;20798;-88
2022/03/31 09:47:04;;;;;;;16.77;12.13;;;11.90;99.90;;;;;;5055082;28;20388;-87
2022/03/31 09:49:30;;;;;;;16.05;12.38;;;12.00;99.90;;;;;;5054408;28;20397;-88
2022/03/31 09:51:59;;;;;;;15.75;12.00;;;12.00;99.90;;;;;;5055127;28;20400;-88
2022/03/31 09:54:27;;;;;;;15.82;10.73;;;11.90;99.90;;;;;;5054842;28;20413;-88
2022/03/31 09:56:57;;;;;;;18.38;12.77;;;11.90;99.90;;;;;;5054806;28;20393;-88
2022/03/31 09:59:34;;;;;;;17.17;11.88;;;12.00;99.90;;;;;;5037047;28;20393;-88
2022/03/31 10:02:01;;;;;;;14.80;10.57;;;12.10;99.90;;;;;;5054867;28;20397;-88
2022/03/31 10:04:27;;;;;;;16.20;10.25;;;12.00;99.90;;;;;;5038180;28;20393;-88
2022/03/31 10:06:53;;;;;;;15.47;11.47;;;11.80;99.90;;;;;;5053384;28;20393;-89
2022/03/31 10:09:20;;;;;;;15.68;11.38;;;11.70;99.90;;;;;;5054818;28;20388;-88
2022/03/31 10:11:52;;;;;;;16.25;11.30;;;11.60;99.90;;;;;;5037100;28;20523;-88
2022/03/31 10:14:57;;;;;;;14.07;10.20;;;11.90;99.90;;;;;;5051988;28;20386;-88
2022/03/31 10:17:27;;;;;;;17.02;9.85;;;12.10;99.90;;;;;;5056189;28;20473;-88
2022/03/31 10:19:57;;;;;;;13.38;9.93;;;12.30;99.90;;;;;;5034165;28;20398;-88
2022/03/31 10:25:08;;;;;;;10.85;8.27;;;12.40;99.90;;;;;;5051246;28;20878;-88
2022/03/31 10:27:40;;;;;;;12.40;8.93;;;12.20;99.90;;;;;;5054076;28;20390;-88
2022/03/31 10:30:20;;;;;;;13.00;8.57;;;12.30;99.90;;;;;;5055022;28;20381;-88
2022/03/31 10:32:55;;;;;;;15.25;8.60;;;12.50;99.90;;;;;;5054524;28;20402;-87
2022/03/31 10:35:27;;;;;;;14.38;8.52;;;13.00;99.90;;;;;;5036315;28;20389;-88
2022/03/31 10:37:54;;;;;;;13.77;7.53;;;12.50;99.90;;;;;;5054107;28;20377;-88
2022/03/31 10:40:42;;;;;;;11.05;6.55;;;12.40;99.90;;;;;;5054319;28;20398;-88
2022/03/31 10:43:26;;;;;;;12.63;6.83;;;12.50;99.90;;;;;;5054331;28;20515;-88
2022/03/31 10:45:54;;;;;;;12.63;8.13;;;12.60;99.90;;;;;;5053511;28;20397;-88
2022/03/31 10:48:23;;;;;;;11.38;7.80;;;12.40;99.90;;;;;;5037124;28;20535;-87
2022/03/31 10:51:04;;;;;;;12.43;8.07;;;12.30;99.90;;;;;;5054595;28;20389;-88
2022/03/31 10:53:35;;;;;;;11.75;7.03;;;12.60;99.90;;;;;;5054278;28;20399;-89
2022/03/31 10:56:03;;;;;;;12.13;6.93;;;12.60;99.90;;;;;;5053695;28;20392;-90
2022/03/31 10:58:30;;;;;;;12.60;7.60;;;12.80;99.90;;;;;;5053621;28;20902;-90
2022/03/31 11:00:57;;;;;;;12.45;6.95;;;13.00;99.90;;;;;;5054869;28;20401;-89
2022/03/31 11:03:23;;;;;;;11.90;6.78;;;13.30;99.90;;;;;;5028310;28;20710;-89
2022/03/31 11:05:53;;;;;;;11.10;6.47;;;13.70;99.90;;;;;;5054356;28;20388;-88
2022/03/31 11:08:19;;;;;;;12.67;7.43;;;13.20;99.90;;;;;;5053396;28;20519;-89
2022/03/31 11:10:50;;;;;;;13.73;7.07;;;14.20;99.90;;;;;;5052284;28;20919;-89
2022/03/31 11:13:18;;;;;;;13.02;6.95;;;13.00;99.90;;;;;;5053717;28;20396;-88
2022/03/31 11:15:54;;;;;;;14.07;6.55;;;13.10;99.90;;;;;;5045700;28;20414;-88
2022/03/31 11:18:21;;;;;;;13.85;6.25;;;13.20;99.90;;;;;;5042610;28;20425;-88
2022/03/31 11:21:05;;;;;;;14.90;6.80;;;13.10;99.90;;;;;;5054100;28;20441;-88
2022/03/31 11:23:34;;;;;;;9.75;6.10;;;13.40;99.90;;;;;;5054593;28;20453;-88
2022/03/31 11:25:59;;;;;;;16.33;6.97;;;13.60;99.90;;;;;;5035611;28;20390;-88
2022/03/31 11:28:31;;;;;;;12.87;6.63;;;13.80;99.90;;;;;;5046220;28;20518;-89
2022/03/31 11:30:59;;;;;;;10.07;6.25;;;13.90;99.90;;;;;;5053219;28;20385;-88
2022/03/31 11:33:34;;;;;;;14.88;6.75;;;14.00;99.90;;;;;;5053178;28;20421;-88
2022/03/31 11:36:00;;;;;;;12.57;6.40;;;14.20;99.90;;;;;;5050496;28;20407;-89
2022/03/31 11:38:27;;;;;;;15.00;6.47;;;14.20;99.90;;;;;;5047241;28;20573;-88
2022/03/31 11:40:52;;;;;;;16.70;6.43;;;14.00;99.90;;;;;;5051828;28;20527;-89
2022/03/31 11:43:19;;;;;;;15.67;6.07;;;14.00;99.90;;;;;;5048305;28;20499;-89
2022/03/31 11:45:55;;;;;;;15.00;6.40;;;14.10;99.90;;;;;;5053618;28;20389;-88
2022/03/31 11:48:30;;;;;;;14.80;5.88;;;14.30;99.90;;;;;;5053806;28;20393;-88
2022/03/31 11:50:58;;;;;;;18.73;6.07;;;14.40;99.90;;;;;;5052960;28;20381;-88
2022/03/31 11:53:32;;;;;;;17.25;5.82;;;14.20;99.90;;;;;;5028813;28;20478;-89
2022/03/31 11:56:08;;;;;;;17.92;6.13;;;14.40;99.90;;;;;;5049691;28;20382;-88
2022/03/31 11:58:42;;;;;;;14.53;6.30;;;14.20;99.90;;;;;;5036027;28;20385;-87
2022/03/31 12:01:07;;;;;;;18.42;6.57;;;14.20;99.90;;;;;;5021152;28;20496;-88
2022/03/31 12:03:38;;;;;;;11.10;5.87;;;14.00;99.90;;;;;;5059728;28;20793;-88
2022/03/31 12:06:06;;;;;;;16.88;7.20;;;14.10;99.90;;;;;;5058721;28;20383;-88
2022/03/31 12:08:32;;;;;;;17.92;5.85;;;13.70;99.90;;;;;;5040657;28;20840;-87
2022/03/31 12:10:58;;;;;;;16.30;6.57;;;13.60;99.90;;;;;;5057839;28;20382;-88
2022/03/31 12:13:26;;;;;;;16.38;6.43;;;13.70;99.90;;;;;;5059665;28;20851;-88
2022/03/31 12:16:09;;;;;;;17.08;6.63;;;13.90;99.90;;;;;;5059128;28;20488;-91
2022/03/31 12:18:35;;;;;;;19.00;6.85;;;13.60;99.90;;;;;;5040841;28;20397;-88
2022/03/31 12:21:06;;;;;;;15.10;6.87;;;13.50;99.90;;;;;;5058087;28;20396;-88
2022/03/31 12:23:32;;;;;;;15.68;6.22;;;13.60;99.90;;;;;;5058556;28;20385;-87
2022/03/31 12:26:16;;;;;;;16.63;6.38;;;14.00;99.90;;;;;;5039973;28;20396;-88
2022/03/31 12:28:46;;;;;;;19.98;6.28;;;14.50;99.90;;;;;;5056729;28;20389;-89
2022/03/31 12:31:29;;;;;;;14.85;6.05;;;14.70;99.90;;;;;;5056546;28;20736;-88
2022/03/31 12:33:57;;;;;;;15.73;6.22;;;14.60;99.90;;;;;;5056385;28;20386;-88
2022/03/31 12:36:26;;;;;;;14.95;5.80;;;14.70;99.90;;;;;;5056197;28;20420;-88
2022/03/31 12:39:05;;;;;;;12.55;6.05;;;14.50;99.90;;;;;;5057758;28;20887;-88
2022/03/31 12:41:36;;;;;;;12.07;6.10;;;14.80;99.90;;;;;;5056717;28;20764;-88
2022/03/31 12:44:09;;;;;;;11.68;5.18;;;15.50;99.90;;;;;;5038651;28;20543;-88
2022/03/31 12:46:45;;;;;;;13.87;6.00;;;14.80;99.90;;;;;;5057077;28;20467;-88
2022/03/31 12:49:13;;;;;;;13.95;5.80;;;15.00;99.90;;;;;;5056147;28;20906;-88
2022/03/31 12:51:43;;;;;;;10.43;5.23;;;15.10;99.90;;;;;;5056466;28;20393;-88
2022/03/31 12:54:29;;;;;;;10.60;5.00;;;15.00;99.90;;;;;;5051789;28;20383;-88
2022/03/31 12:57:06;;;;;;;12.25;5.50;;;15.00;99.90;;;;;;5057065;28;20432;-88
2022/03/31 12:59:34;;;;;;;9.95;5.30;;;14.80;99.90;;;;;;5057091;28;20389;-88
2022/03/31 13:02:07;;;;;;;10.98;5.65;;;14.80;99.90;;;;;;5055661;28;20475;-88
2022/03/31 13:04:38;;;;;;;11.23;5.50;;;14.70;99.90;;;;;;5038819;28;20400;-88
2022/03/31 13:07:09;;;;;;;13.30;5.80;;;14.60;99.90;;;;;;5038758;28;20400;-88
2022/03/31 13:09:35;;;;;;;13.20;5.75;;;14.60;99.90;;;;;;5056550;28;20998;-88
2022/03/31 13:12:02;;;;;;;13.80;5.82;;;14.60;99.90;;;;;;5051349;28;20409;-88
2022/03/31 13:14:34;;;;;;;13.07;6.17;;;14.70;99.90;;;;;;5053809;28;20825;-89
2022/03/31 13:17:00;;;;;;;10.80;5.72;;;14.70;99.90;;;;;;5050628;28;20395;-89
2022/03/31 13:19:25;;;;;;;13.60;5.75;;;14.70;99.90;;;;;;5024543;28;21000;-89
2022/03/31 13:21:51;;;;;;;18.30;6.03;;;14.70;99.90;;;;;;5046914;28;20436;-88
2022/03/31 13:24:17;;;;;;;10.57;6.22;;;14.70;99.90;;;;;;5050558;28;20385;-88
2022/03/31 13:26:50;;;;;;;12.32;6.10;;;14.70;99.90;;;;;;5051318;28;20385;-91
2022/03/31 13:29:17;;;;;;;13.43;6.32;;;14.60;99.90;;;;;;5056011;28;20381;-87
2022/03/31 13:31:45;;;;;;;15.55;5.53;;;14.40;99.90;;;;;;5060189;28;20955;-87
2022/03/31 13:34:11;;;;;;;10.60;5.10;;;14.30;99.90;;;;;;5056080;28;20479;-87